sensor_id;sensor_type;location;lat;lon;timestamp;P1;durP1;ratioP1;P2;durP2;ratioP2
54167;SDS011;40072;50.958;3.592;2022-12-16T00:01:12;152.80;;;82.80;;
54167;SDS011;40072;50.958;3.592;2022-12-16T00:03:46;147.68;;;86.97;;
54167;SDS011;40072;50.958;3.592;2022-12-16T00:06:13;140.00;;;84.18;;
54167;SDS011;40072;50.958;3.592;2022-12-16T00:08:39;147.85;;;85.65;;
54167;SDS011;40072;50.958;3.592;2022-12-16T00:11:05;151.50;;;87.05;;
54167;SDS011;40072;50.958;3.592;2022-12-16T00:13:33;146.57;;;84.70;;
54167;SDS011;40072;50.958;3.592;2022-12-16T00:16:03;148.60;;;82.75;;
54167;SDS011;40072;50.958;3.592;2022-12-16T00:18:30;150.02;;;83.57;;
54167;SDS011;40072;50.958;3.592;2022-12-16T00:20:55;142.80;;;82.32;;
54167;SDS011;40072;50.958;3.592;2022-12-16T00:23:21;143.90;;;81.20;;
54167;SDS011;40072;50.958;3.592;2022-12-16T00:25:47;148.55;;;80.72;;
54167;SDS011;40072;50.958;3.592;2022-12-16T00:28:14;143.07;;;79.57;;
54167;SDS011;40072;50.958;3.592;2022-12-16T00:30:42;144.40;;;80.13;;
54167;SDS011;40072;50.958;3.592;2022-12-16T00:33:08;140.02;;;78.72;;
54167;SDS011;40072;50.958;3.592;2022-12-16T00:35:34;150.23;;;80.72;;
54167;SDS011;40072;50.958;3.592;2022-12-16T00:38:00;139.10;;;80.28;;
54167;SDS011;40072;50.958;3.592;2022-12-16T00:40:26;146.02;;;80.97;;
54167;SDS011;40072;50.958;3.592;2022-12-16T00:42:51;137.00;;;77.70;;
54167;SDS011;40072;50.958;3.592;2022-12-16T00:45:17;150.75;;;85.68;;
54167;SDS011;40072;50.958;3.592;2022-12-16T00:47:43;148.43;;;81.90;;
54167;SDS011;40072;50.958;3.592;2022-12-16T00:50:09;137.23;;;79.18;;
54167;SDS011;40072;50.958;3.592;2022-12-16T00:52:35;142.32;;;81.03;;
54167;SDS011;40072;50.958;3.592;2022-12-16T00:55:01;140.77;;;78.25;;
54167;SDS011;40072;50.958;3.592;2022-12-16T00:57:27;139.98;;;77.35;;
54167;SDS011;40072;50.958;3.592;2022-12-16T00:59:53;126.22;;;75.55;;
54167;SDS011;40072;50.958;3.592;2022-12-16T01:02:19;144.45;;;74.68;;
54167;SDS011;40072;50.958;3.592;2022-12-16T01:04:44;134.70;;;75.20;;
54167;SDS011;40072;50.958;3.592;2022-12-16T01:07:10;137.63;;;75.38;;
54167;SDS011;40072;50.958;3.592;2022-12-16T01:09:36;135.77;;;77.03;;
54167;SDS011;40072;50.958;3.592;2022-12-16T01:12:01;144.55;;;76.07;;
54167;SDS011;40072;50.958;3.592;2022-12-16T01:14:27;129.38;;;72.82;;
54167;SDS011;40072;50.958;3.592;2022-12-16T01:16:53;140.05;;;74.55;;
54167;SDS011;40072;50.958;3.592;2022-12-16T01:19:18;133.90;;;73.82;;
54167;SDS011;40072;50.958;3.592;2022-12-16T01:21:44;130.18;;;73.85;;
54167;SDS011;40072;50.958;3.592;2022-12-16T01:24:10;127.05;;;72.55;;
54167;SDS011;40072;50.958;3.592;2022-12-16T01:26:36;130.50;;;71.13;;
54167;SDS011;40072;50.958;3.592;2022-12-16T01:29:03;133.15;;;74.20;;
54167;SDS011;40072;50.958;3.592;2022-12-16T01:31:29;121.88;;;69.20;;
54167;SDS011;40072;50.958;3.592;2022-12-16T01:33:55;122.18;;;70.15;;
54167;SDS011;40072;50.958;3.592;2022-12-16T01:36:20;123.50;;;66.50;;
54167;SDS011;40072;50.958;3.592;2022-12-16T01:38:46;117.32;;;66.57;;
54167;SDS011;40072;50.958;3.592;2022-12-16T01:41:13;126.57;;;68.65;;
54167;SDS011;40072;50.958;3.592;2022-12-16T01:43:40;123.05;;;69.75;;
54167;SDS011;40072;50.958;3.592;2022-12-16T01:51:06;124.20;;;69.55;;
54167;SDS011;40072;50.958;3.592;2022-12-16T01:53:36;115.30;;;65.65;;
54167;SDS011;40072;50.958;3.592;2022-12-16T01:56:05;109.50;;;61.95;;
54167;SDS011;40072;50.958;3.592;2022-12-16T01:58:32;112.05;;;63.50;;
54167;SDS011;40072;50.958;3.592;2022-12-16T02:01:00;110.78;;;61.42;;
54167;SDS011;40072;50.958;3.592;2022-12-16T02:03:28;110.43;;;60.75;;
54167;SDS011;40072;50.958;3.592;2022-12-16T02:05:57;110.90;;;63.38;;
54167;SDS011;40072;50.958;3.592;2022-12-16T02:08:24;118.13;;;68.10;;
54167;SDS011;40072;50.958;3.592;2022-12-16T02:13:45;110.20;;;60.40;;
54167;SDS011;40072;50.958;3.592;2022-12-16T02:27:38;103.50;;;57.90;;
54167;SDS011;40072;50.958;3.592;2022-12-16T02:40:43;98.05;;;53.55;;
54167;SDS011;40072;50.958;3.592;2022-12-16T02:45:50;98.20;;;53.72;;
54167;SDS011;40072;50.958;3.592;2022-12-16T02:48:16;103.28;;;55.30;;
54167;SDS011;40072;50.958;3.592;2022-12-16T02:50:48;101.90;;;56.50;;
54167;SDS011;40072;50.958;3.592;2022-12-16T02:53:16;96.90;;;55.90;;
54167;SDS011;40072;50.958;3.592;2022-12-16T02:58:35;93.05;;;53.50;;
54167;SDS011;40072;50.958;3.592;2022-12-16T03:04:07;97.95;;;54.30;;
54167;SDS011;40072;50.958;3.592;2022-12-16T03:06:39;97.68;;;55.42;;
54167;SDS011;40072;50.958;3.592;2022-12-16T03:09:08;104.57;;;57.58;;
54167;SDS011;40072;50.958;3.592;2022-12-16T03:14:04;89.97;;;51.58;;
54167;SDS011;40072;50.958;3.592;2022-12-16T03:16:33;100.57;;;53.33;;
54167;SDS011;40072;50.958;3.592;2022-12-16T03:19:03;97.38;;;53.67;;
54167;SDS011;40072;50.958;3.592;2022-12-16T03:21:42;92.57;;;52.50;;
54167;SDS011;40072;50.958;3.592;2022-12-16T03:24:28;106.90;;;52.22;;
54167;SDS011;40072;50.958;3.592;2022-12-16T03:27:00;91.07;;;50.63;;
54167;SDS011;40072;50.958;3.592;2022-12-16T03:29:38;96.55;;;51.40;;
54167;SDS011;40072;50.958;3.592;2022-12-16T03:32:20;91.20;;;50.25;;
54167;SDS011;40072;50.958;3.592;2022-12-16T03:35:00;84.32;;;47.67;;
54167;SDS011;40072;50.958;3.592;2022-12-16T03:37:37;84.13;;;47.35;;
54167;SDS011;40072;50.958;3.592;2022-12-16T03:40:06;84.80;;;48.33;;
54167;SDS011;40072;50.958;3.592;2022-12-16T03:42:34;83.70;;;48.40;;
54167;SDS011;40072;50.958;3.592;2022-12-16T03:45:00;87.57;;;45.97;;
54167;SDS011;40072;50.958;3.592;2022-12-16T03:47:27;85.90;;;46.67;;
54167;SDS011;40072;50.958;3.592;2022-12-16T03:49:53;87.45;;;45.42;;
54167;SDS011;40072;50.958;3.592;2022-12-16T03:52:19;82.32;;;44.65;;
54167;SDS011;40072;50.958;3.592;2022-12-16T03:54:45;86.50;;;48.30;;
54167;SDS011;40072;50.958;3.592;2022-12-16T03:57:11;82.30;;;42.45;;
54167;SDS011;40072;50.958;3.592;2022-12-16T03:59:37;79.32;;;45.40;;
54167;SDS011;40072;50.958;3.592;2022-12-16T04:02:03;82.90;;;45.05;;
54167;SDS011;40072;50.958;3.592;2022-12-16T04:04:29;80.40;;;45.55;;
54167;SDS011;40072;50.958;3.592;2022-12-16T04:06:54;75.03;;;44.35;;
54167;SDS011;40072;50.958;3.592;2022-12-16T04:09:39;76.25;;;41.70;;
54167;SDS011;40072;50.958;3.592;2022-12-16T04:12:04;71.32;;;40.08;;
54167;SDS011;40072;50.958;3.592;2022-12-16T04:14:48;72.15;;;39.47;;
54167;SDS011;40072;50.958;3.592;2022-12-16T04:17:33;70.25;;;38.92;;
54167;SDS011;40072;50.958;3.592;2022-12-16T04:20:17;69.57;;;38.95;;
54167;SDS011;40072;50.958;3.592;2022-12-16T04:23:03;75.53;;;40.03;;
54167;SDS011;40072;50.958;3.592;2022-12-16T04:25:48;70.63;;;38.03;;
54167;SDS011;40072;50.958;3.592;2022-12-16T04:28:14;70.05;;;36.97;;
54167;SDS011;40072;50.958;3.592;2022-12-16T04:30:39;68.82;;;37.17;;
54167;SDS011;40072;50.958;3.592;2022-12-16T04:33:06;64.13;;;36.33;;
54167;SDS011;40072;50.958;3.592;2022-12-16T04:35:54;71.72;;;38.00;;
54167;SDS011;40072;50.958;3.592;2022-12-16T04:38:38;66.30;;;35.85;;
54167;SDS011;40072;50.958;3.592;2022-12-16T04:41:22;63.95;;;34.80;;
54167;SDS011;40072;50.958;3.592;2022-12-16T04:44:06;65.95;;;35.63;;
54167;SDS011;40072;50.958;3.592;2022-12-16T04:46:51;58.65;;;33.70;;
54167;SDS011;40072;50.958;3.592;2022-12-16T04:49:35;61.60;;;33.83;;
54167;SDS011;40072;50.958;3.592;2022-12-16T04:52:19;64.80;;;32.50;;
54167;SDS011;40072;50.958;3.592;2022-12-16T04:55:03;69.15;;;33.63;;
54167;SDS011;40072;50.958;3.592;2022-12-16T04:58:07;56.08;;;31.88;;
54167;SDS011;40072;50.958;3.592;2022-12-16T05:00:51;70.30;;;35.10;;
54167;SDS011;40072;50.958;3.592;2022-12-16T05:03:35;66.95;;;36.30;;
54167;SDS011;40072;50.958;3.592;2022-12-16T05:06:19;59.83;;;34.60;;
54167;SDS011;40072;50.958;3.592;2022-12-16T05:09:04;75.22;;;34.47;;
54167;SDS011;40072;50.958;3.592;2022-12-16T05:11:49;67.45;;;35.80;;
54167;SDS011;40072;50.958;3.592;2022-12-16T05:14:33;63.53;;;34.38;;
54167;SDS011;40072;50.958;3.592;2022-12-16T05:17:18;65.32;;;34.10;;
54167;SDS011;40072;50.958;3.592;2022-12-16T05:20:03;74.50;;;39.78;;
54167;SDS011;40072;50.958;3.592;2022-12-16T05:22:48;70.43;;;40.75;;
54167;SDS011;40072;50.958;3.592;2022-12-16T05:25:32;79.22;;;41.75;;
54167;SDS011;40072;50.958;3.592;2022-12-16T05:28:16;78.60;;;37.97;;
54167;SDS011;40072;50.958;3.592;2022-12-16T05:31:00;74.28;;;38.50;;
54167;SDS011;40072;50.958;3.592;2022-12-16T05:33:51;71.95;;;36.72;;
54167;SDS011;40072;50.958;3.592;2022-12-16T05:36:35;64.32;;;36.08;;
54167;SDS011;40072;50.958;3.592;2022-12-16T05:39:19;71.93;;;39.60;;
54167;SDS011;40072;50.958;3.592;2022-12-16T05:42:03;79.43;;;38.22;;
54167;SDS011;40072;50.958;3.592;2022-12-16T05:44:47;77.05;;;41.63;;
54167;SDS011;40072;50.958;3.592;2022-12-16T05:47:31;69.25;;;38.17;;
54167;SDS011;40072;50.958;3.592;2022-12-16T05:50:15;83.20;;;39.30;;
54167;SDS011;40072;50.958;3.592;2022-12-16T05:53:00;74.18;;;38.35;;
54167;SDS011;40072;50.958;3.592;2022-12-16T05:55:44;87.03;;;40.28;;
54167;SDS011;40072;50.958;3.592;2022-12-16T05:58:28;79.07;;;38.13;;
54167;SDS011;40072;50.958;3.592;2022-12-16T06:01:32;75.38;;;37.45;;
54167;SDS011;40072;50.958;3.592;2022-12-16T06:04:17;70.00;;;36.30;;
54167;SDS011;40072;50.958;3.592;2022-12-16T06:07:01;69.60;;;35.97;;
54167;SDS011;40072;50.958;3.592;2022-12-16T06:09:46;72.85;;;37.15;;
54167;SDS011;40072;50.958;3.592;2022-12-16T06:12:30;68.93;;;36.53;;
54167;SDS011;40072;50.958;3.592;2022-12-16T06:15:14;64.65;;;36.05;;
54167;SDS011;40072;50.958;3.592;2022-12-16T06:17:58;63.03;;;32.65;;
54167;SDS011;40072;50.958;3.592;2022-12-16T06:20:42;65.43;;;34.00;;
54167;SDS011;40072;50.958;3.592;2022-12-16T06:23:26;73.38;;;34.67;;
54167;SDS011;40072;50.958;3.592;2022-12-16T06:26:11;65.30;;;31.55;;
54167;SDS011;40072;50.958;3.592;2022-12-16T06:28:56;69.25;;;32.15;;
54167;SDS011;40072;50.958;3.592;2022-12-16T06:31:39;66.65;;;33.20;;
54167;SDS011;40072;50.958;3.592;2022-12-16T06:34:23;60.15;;;30.23;;
54167;SDS011;40072;50.958;3.592;2022-12-16T06:37:07;57.40;;;28.85;;
54167;SDS011;40072;50.958;3.592;2022-12-16T06:39:51;53.83;;;28.85;;
54167;SDS011;40072;50.958;3.592;2022-12-16T06:42:38;59.13;;;29.70;;
54167;SDS011;40072;50.958;3.592;2022-12-16T06:45:23;55.15;;;27.65;;
54167;SDS011;40072;50.958;3.592;2022-12-16T06:48:07;60.47;;;30.45;;
54167;SDS011;40072;50.958;3.592;2022-12-16T06:50:51;60.33;;;31.80;;
54167;SDS011;40072;50.958;3.592;2022-12-16T06:53:36;59.65;;;30.63;;
54167;SDS011;40072;50.958;3.592;2022-12-16T06:56:20;55.40;;;27.98;;
54167;SDS011;40072;50.958;3.592;2022-12-16T06:59:04;58.15;;;28.33;;
54167;SDS011;40072;50.958;3.592;2022-12-16T07:01:48;55.00;;;27.95;;
54167;SDS011;40072;50.958;3.592;2022-12-16T07:04:32;52.55;;;27.35;;
54167;SDS011;40072;50.958;3.592;2022-12-16T07:07:16;65.90;;;28.45;;
54167;SDS011;40072;50.958;3.592;2022-12-16T07:10:00;43.38;;;17.70;;
54167;SDS011;40072;50.958;3.592;2022-12-16T07:12:45;61.13;;;28.40;;
54167;SDS011;40072;50.958;3.592;2022-12-16T07:15:28;46.17;;;21.20;;
54167;SDS011;40072;50.958;3.592;2022-12-16T07:18:13;45.53;;;23.10;;
54167;SDS011;40072;50.958;3.592;2022-12-16T07:20:56;50.08;;;22.80;;
54167;SDS011;40072;50.958;3.592;2022-12-16T07:23:40;42.22;;;22.67;;
54167;SDS011;40072;50.958;3.592;2022-12-16T07:26:24;43.13;;;19.85;;
54167;SDS011;40072;50.958;3.592;2022-12-16T07:29:08;40.92;;;19.73;;
54167;SDS011;40072;50.958;3.592;2022-12-16T07:31:52;38.83;;;21.15;;
54167;SDS011;40072;50.958;3.592;2022-12-16T07:34:37;42.17;;;21.08;;
54167;SDS011;40072;50.958;3.592;2022-12-16T07:37:21;48.25;;;20.90;;
54167;SDS011;40072;50.958;3.592;2022-12-16T07:40:04;38.80;;;21.02;;
54167;SDS011;40072;50.958;3.592;2022-12-16T07:42:50;48.20;;;22.05;;
54167;SDS011;40072;50.958;3.592;2022-12-16T07:45:34;42.08;;;22.50;;
54167;SDS011;40072;50.958;3.592;2022-12-16T07:48:18;40.30;;;21.13;;
54167;SDS011;40072;50.958;3.592;2022-12-16T07:51:02;54.33;;;22.38;;
54167;SDS011;40072;50.958;3.592;2022-12-16T07:53:46;45.10;;;21.05;;
54167;SDS011;40072;50.958;3.592;2022-12-16T07:56:30;41.22;;;21.95;;
54167;SDS011;40072;50.958;3.592;2022-12-16T07:59:14;37.58;;;18.77;;
54167;SDS011;40072;50.958;3.592;2022-12-16T08:01:58;47.05;;;20.13;;
54167;SDS011;40072;50.958;3.592;2022-12-16T08:04:42;33.90;;;20.15;;
54167;SDS011;40072;50.958;3.592;2022-12-16T08:07:26;38.38;;;19.20;;
54167;SDS011;40072;50.958;3.592;2022-12-16T08:10:10;36.45;;;17.92;;
54167;SDS011;40072;50.958;3.592;2022-12-16T08:12:58;45.15;;;19.67;;
54167;SDS011;40072;50.958;3.592;2022-12-16T08:15:44;38.45;;;19.25;;
54167;SDS011;40072;50.958;3.592;2022-12-16T08:18:28;38.38;;;18.10;;
54167;SDS011;40072;50.958;3.592;2022-12-16T08:21:12;36.67;;;18.10;;
54167;SDS011;40072;50.958;3.592;2022-12-16T08:23:57;34.78;;;17.70;;
54167;SDS011;40072;50.958;3.592;2022-12-16T08:26:41;38.95;;;16.05;;
54167;SDS011;40072;50.958;3.592;2022-12-16T08:29:25;30.52;;;16.60;;
54167;SDS011;40072;50.958;3.592;2022-12-16T08:32:09;26.35;;;14.32;;
54167;SDS011;40072;50.958;3.592;2022-12-16T08:34:53;31.48;;;15.40;;
54167;SDS011;40072;50.958;3.592;2022-12-16T08:37:37;32.75;;;14.40;;
54167;SDS011;40072;50.958;3.592;2022-12-16T08:40:21;31.33;;;13.35;;
54167;SDS011;40072;50.958;3.592;2022-12-16T08:43:06;25.05;;;12.30;;
54167;SDS011;40072;50.958;3.592;2022-12-16T08:45:51;21.98;;;13.20;;
54167;SDS011;40072;50.958;3.592;2022-12-16T08:48:36;25.25;;;12.85;;
54167;SDS011;40072;50.958;3.592;2022-12-16T08:51:21;25.70;;;13.20;;
54167;SDS011;40072;50.958;3.592;2022-12-16T08:54:05;27.17;;;16.33;;
54167;SDS011;40072;50.958;3.592;2022-12-16T08:56:49;39.50;;;15.05;;
54167;SDS011;40072;50.958;3.592;2022-12-16T08:59:33;27.25;;;14.38;;
54167;SDS011;40072;50.958;3.592;2022-12-16T09:02:18;24.50;;;13.65;;
54167;SDS011;40072;50.958;3.592;2022-12-16T09:05:02;29.95;;;14.35;;
54167;SDS011;40072;50.958;3.592;2022-12-16T09:07:47;26.38;;;14.23;;
54167;SDS011;40072;50.958;3.592;2022-12-16T09:10:31;23.83;;;15.02;;
54167;SDS011;40072;50.958;3.592;2022-12-16T09:13:15;21.67;;;12.90;;
54167;SDS011;40072;50.958;3.592;2022-12-16T09:15:59;26.88;;;14.73;;
54167;SDS011;40072;50.958;3.592;2022-12-16T09:18:43;34.20;;;15.60;;
54167;SDS011;40072;50.958;3.592;2022-12-16T09:21:28;40.83;;;17.50;;
54167;SDS011;40072;50.958;3.592;2022-12-16T09:24:12;25.13;;;16.10;;
54167;SDS011;40072;50.958;3.592;2022-12-16T09:26:57;24.08;;;14.13;;
54167;SDS011;40072;50.958;3.592;2022-12-16T09:29:41;31.48;;;16.73;;
54167;SDS011;40072;50.958;3.592;2022-12-16T09:32:25;33.53;;;16.05;;
54167;SDS011;40072;50.958;3.592;2022-12-16T09:35:09;23.35;;;14.23;;
54167;SDS011;40072;50.958;3.592;2022-12-16T09:37:53;27.08;;;14.15;;
54167;SDS011;40072;50.958;3.592;2022-12-16T09:40:54;18.60;;;11.27;;
54167;SDS011;40072;50.958;3.592;2022-12-16T09:43:51;19.00;;;10.52;;
54167;SDS011;40072;50.958;3.592;2022-12-16T09:46:57;20.42;;;11.43;;
54167;SDS011;40072;50.958;3.592;2022-12-16T09:49:49;16.02;;;11.10;;
54167;SDS011;40072;50.958;3.592;2022-12-16T09:52:40;21.20;;;11.52;;
54167;SDS011;40072;50.958;3.592;2022-12-16T09:55:33;20.65;;;10.80;;
54167;SDS011;40072;50.958;3.592;2022-12-16T09:58:21;18.33;;;11.15;;
54167;SDS011;40072;50.958;3.592;2022-12-16T10:01:10;16.30;;;9.07;;
54167;SDS011;40072;50.958;3.592;2022-12-16T10:03:55;16.65;;;8.80;;
54167;SDS011;40072;50.958;3.592;2022-12-16T10:06:53;15.02;;;9.27;;
54167;SDS011;40072;50.958;3.592;2022-12-16T10:16:03;15.05;;;8.88;;
54167;SDS011;40072;50.958;3.592;2022-12-16T10:25:22;14.63;;;8.70;;
54167;SDS011;40072;50.958;3.592;2022-12-16T10:28:05;14.93;;;8.35;;
54167;SDS011;40072;50.958;3.592;2022-12-16T10:31:02;11.57;;;6.78;;
54167;SDS011;40072;50.958;3.592;2022-12-16T10:34:09;15.93;;;6.65;;
54167;SDS011;40072;50.958;3.592;2022-12-16T10:36:57;9.68;;;5.65;;
54167;SDS011;40072;50.958;3.592;2022-12-16T10:39:43;14.27;;;6.45;;
54167;SDS011;40072;50.958;3.592;2022-12-16T10:42:39;9.80;;;5.72;;
54167;SDS011;40072;50.958;3.592;2022-12-16T10:45:37;13.35;;;6.93;;
54167;SDS011;40072;50.958;3.592;2022-12-16T10:48:26;20.38;;;7.65;;
54167;SDS011;40072;50.958;3.592;2022-12-16T10:51:14;15.38;;;7.22;;
54167;SDS011;40072;50.958;3.592;2022-12-16T11:00:36;18.85;;;6.07;;
54167;SDS011;40072;50.958;3.592;2022-12-16T11:03:24;13.98;;;5.15;;
54167;SDS011;40072;50.958;3.592;2022-12-16T11:06:26;12.63;;;6.07;;
54167;SDS011;40072;50.958;3.592;2022-12-16T11:12:27;15.80;;;5.38;;
54167;SDS011;40072;50.958;3.592;2022-12-16T11:18:09;13.55;;;5.45;;
54167;SDS011;40072;50.958;3.592;2022-12-16T11:27:00;11.23;;;5.47;;
54167;SDS011;40072;50.958;3.592;2022-12-16T11:29:56;12.20;;;6.10;;
54167;SDS011;40072;50.958;3.592;2022-12-16T11:32:53;14.95;;;6.47;;
54167;SDS011;40072;50.958;3.592;2022-12-16T11:35:42;14.55;;;7.50;;
54167;SDS011;40072;50.958;3.592;2022-12-16T11:38:46;16.13;;;7.20;;
54167;SDS011;40072;50.958;3.592;2022-12-16T11:41:35;10.95;;;5.85;;
54167;SDS011;40072;50.958;3.592;2022-12-16T11:44:25;17.20;;;5.85;;
54167;SDS011;40072;50.958;3.592;2022-12-16T11:47:34;11.20;;;4.90;;
54167;SDS011;40072;50.958;3.592;2022-12-16T11:50:23;12.57;;;5.57;;
54167;SDS011;40072;50.958;3.592;2022-12-16T11:53:44;18.80;;;5.65;;
54167;SDS011;40072;50.958;3.592;2022-12-16T11:56:29;14.27;;;5.93;;
54167;SDS011;40072;50.958;3.592;2022-12-16T11:59:23;20.40;;;6.57;;
54167;SDS011;40072;50.958;3.592;2022-12-16T12:02:15;24.52;;;5.82;;
54167;SDS011;40072;50.958;3.592;2022-12-16T12:05:03;16.95;;;5.60;;
54167;SDS011;40072;50.958;3.592;2022-12-16T12:16:41;14.27;;;5.40;;
54167;SDS011;40072;50.958;3.592;2022-12-16T12:19:31;13.85;;;5.25;;
54167;SDS011;40072;50.958;3.592;2022-12-16T12:34:43;11.50;;;5.22;;
54167;SDS011;40072;50.958;3.592;2022-12-16T12:41:11;9.40;;;5.47;;
54167;SDS011;40072;50.958;3.592;2022-12-16T12:43:37;10.32;;;4.85;;
54167;SDS011;40072;50.958;3.592;2022-12-16T12:46:35;16.23;;;6.90;;
54167;SDS011;40072;50.958;3.592;2022-12-16T12:49:36;12.75;;;4.88;;
54167;SDS011;40072;50.958;3.592;2022-12-16T12:59:03;10.85;;;4.35;;
54167;SDS011;40072;50.958;3.592;2022-12-16T13:01:56;10.70;;;3.90;;
54167;SDS011;40072;50.958;3.592;2022-12-16T13:04:43;12.32;;;4.35;;
54167;SDS011;40072;50.958;3.592;2022-12-16T13:07:29;9.90;;;4.10;;
54167;SDS011;40072;50.958;3.592;2022-12-16T13:15:58;11.32;;;4.05;;
54167;SDS011;40072;50.958;3.592;2022-12-16T13:18:43;6.93;;;4.07;;
54167;SDS011;40072;50.958;3.592;2022-12-16T13:27:09;9.65;;;4.47;;
54167;SDS011;40072;50.958;3.592;2022-12-16T13:30:01;8.63;;;4.25;;
54167;SDS011;40072;50.958;3.592;2022-12-16T13:32:53;7.18;;;3.85;;
54167;SDS011;40072;50.958;3.592;2022-12-16T13:35:50;12.52;;;4.40;;
54167;SDS011;40072;50.958;3.592;2022-12-16T13:38:45;8.48;;;4.55;;
54167;SDS011;40072;50.958;3.592;2022-12-16T13:50:37;9.27;;;4.57;;
54167;SDS011;40072;50.958;3.592;2022-12-16T13:53:21;10.77;;;5.15;;
54167;SDS011;40072;50.958;3.592;2022-12-16T13:56:08;14.30;;;4.35;;
54167;SDS011;40072;50.958;3.592;2022-12-16T13:59:02;9.68;;;4.75;;
54167;SDS011;40072;50.958;3.592;2022-12-16T14:01:51;12.40;;;4.68;;
54167;SDS011;40072;50.958;3.592;2022-12-16T14:04:38;11.77;;;4.78;;
54167;SDS011;40072;50.958;3.592;2022-12-16T14:07:27;13.77;;;4.82;;
54167;SDS011;40072;50.958;3.592;2022-12-16T14:10:22;12.60;;;4.65;;
54167;SDS011;40072;50.958;3.592;2022-12-16T14:22:26;9.32;;;4.80;;
54167;SDS011;40072;50.958;3.592;2022-12-16T14:31:15;13.48;;;4.97;;
54167;SDS011;40072;50.958;3.592;2022-12-16T14:34:04;10.43;;;4.90;;
54167;SDS011;40072;50.958;3.592;2022-12-16T14:36:54;10.98;;;4.57;;
54167;SDS011;40072;50.958;3.592;2022-12-16T14:39:38;13.23;;;4.93;;
54167;SDS011;40072;50.958;3.592;2022-12-16T14:42:27;8.93;;;4.50;;
54167;SDS011;40072;50.958;3.592;2022-12-16T14:45:34;8.68;;;4.15;;
54167;SDS011;40072;50.958;3.592;2022-12-16T14:48:20;13.45;;;4.35;;
54167;SDS011;40072;50.958;3.592;2022-12-16T14:51:21;21.33;;;4.68;;
54167;SDS011;40072;50.958;3.592;2022-12-16T14:57:18;29.70;;;14.38;;
54167;SDS011;40072;50.958;3.592;2022-12-16T15:02:54;16.50;;;4.72;;
54167;SDS011;40072;50.958;3.592;2022-12-16T15:05:45;14.32;;;5.82;;
54167;SDS011;40072;50.958;3.592;2022-12-16T15:08:31;28.50;;;11.75;;
54167;SDS011;40072;50.958;3.592;2022-12-16T15:14:05;14.60;;;8.73;;
54167;SDS011;40072;50.958;3.592;2022-12-16T15:16:54;15.43;;;9.60;;
54167;SDS011;40072;50.958;3.592;2022-12-16T15:19:41;11.07;;;7.03;;
54167;SDS011;40072;50.958;3.592;2022-12-16T15:22:27;19.00;;;6.77;;
54167;SDS011;40072;50.958;3.592;2022-12-16T15:28:03;13.15;;;5.97;;
54167;SDS011;40072;50.958;3.592;2022-12-16T15:30:47;11.15;;;5.90;;
54167;SDS011;40072;50.958;3.592;2022-12-16T15:33:33;14.15;;;6.07;;
54167;SDS011;40072;50.958;3.592;2022-12-16T15:36:28;18.05;;;6.38;;
54167;SDS011;40072;50.958;3.592;2022-12-16T15:42:41;15.63;;;6.07;;
54167;SDS011;40072;50.958;3.592;2022-12-16T15:45:27;18.48;;;6.28;;
54167;SDS011;40072;50.958;3.592;2022-12-16T15:51:18;20.55;;;6.43;;
54167;SDS011;40072;50.958;3.592;2022-12-16T15:54:04;10.93;;;5.67;;
54167;SDS011;40072;50.958;3.592;2022-12-16T15:56:56;14.57;;;5.53;;
54167;SDS011;40072;50.958;3.592;2022-12-16T15:59:51;19.48;;;5.97;;
54167;SDS011;40072;50.958;3.592;2022-12-16T16:02:43;17.08;;;6.55;;
54167;SDS011;40072;50.958;3.592;2022-12-16T16:05:40;14.15;;;6.78;;
54167;SDS011;40072;50.958;3.592;2022-12-16T16:08:25;15.70;;;7.05;;
54167;SDS011;40072;50.958;3.592;2022-12-16T16:11:09;17.23;;;6.13;;
54167;SDS011;40072;50.958;3.592;2022-12-16T16:13:53;17.20;;;7.20;;
54167;SDS011;40072;50.958;3.592;2022-12-16T16:16:37;18.95;;;5.80;;
54167;SDS011;40072;50.958;3.592;2022-12-16T16:19:22;10.77;;;5.82;;
54167;SDS011;40072;50.958;3.592;2022-12-16T16:22:15;24.00;;;6.63;;
54167;SDS011;40072;50.958;3.592;2022-12-16T16:25:01;12.45;;;6.28;;
54167;SDS011;40072;50.958;3.592;2022-12-16T16:27:45;23.52;;;7.32;;
54167;SDS011;40072;50.958;3.592;2022-12-16T16:30:30;29.77;;;7.10;;
54167;SDS011;40072;50.958;3.592;2022-12-16T16:33:14;23.48;;;7.10;;
54167;SDS011;40072;50.958;3.592;2022-12-16T16:35:58;20.73;;;6.68;;
54167;SDS011;40072;50.958;3.592;2022-12-16T16:38:42;18.55;;;6.65;;
54167;SDS011;40072;50.958;3.592;2022-12-16T16:41:26;20.38;;;6.88;;
54167;SDS011;40072;50.958;3.592;2022-12-16T16:44:10;29.88;;;9.65;;
54167;SDS011;40072;50.958;3.592;2022-12-16T16:46:54;16.48;;;7.30;;
54167;SDS011;40072;50.958;3.592;2022-12-16T16:49:41;25.35;;;7.38;;
54167;SDS011;40072;50.958;3.592;2022-12-16T16:52:27;20.08;;;7.82;;
54167;SDS011;40072;50.958;3.592;2022-12-16T16:55:16;24.48;;;7.55;;
54167;SDS011;40072;50.958;3.592;2022-12-16T16:58:06;19.38;;;7.85;;
54167;SDS011;40072;50.958;3.592;2022-12-16T17:01:11;18.40;;;9.03;;
54167;SDS011;40072;50.958;3.592;2022-12-16T17:03:56;24.45;;;12.18;;
54167;SDS011;40072;50.958;3.592;2022-12-16T17:06:40;34.75;;;13.13;;
54167;SDS011;40072;50.958;3.592;2022-12-16T17:09:25;32.03;;;12.32;;
54167;SDS011;40072;50.958;3.592;2022-12-16T17:12:22;33.53;;;14.07;;
54167;SDS011;40072;50.958;3.592;2022-12-16T17:15:24;25.52;;;12.30;;
54167;SDS011;40072;50.958;3.592;2022-12-16T17:18:13;35.00;;;14.02;;
54167;SDS011;40072;50.958;3.592;2022-12-16T17:20:58;32.33;;;13.68;;
54167;SDS011;40072;50.958;3.592;2022-12-16T17:23:42;33.72;;;15.77;;
54167;SDS011;40072;50.958;3.592;2022-12-16T17:26:26;33.50;;;13.40;;
54167;SDS011;40072;50.958;3.592;2022-12-16T17:29:23;27.42;;;10.68;;
54167;SDS011;40072;50.958;3.592;2022-12-16T17:32:12;23.90;;;11.65;;
54167;SDS011;40072;50.958;3.592;2022-12-16T17:34:57;40.67;;;16.60;;
54167;SDS011;40072;50.958;3.592;2022-12-16T17:37:58;37.95;;;17.95;;
54167;SDS011;40072;50.958;3.592;2022-12-16T17:40:57;34.95;;;15.35;;
54167;SDS011;40072;50.958;3.592;2022-12-16T17:43:41;33.83;;;15.27;;
54167;SDS011;40072;50.958;3.592;2022-12-16T17:46:39;42.53;;;15.25;;
54167;SDS011;40072;50.958;3.592;2022-12-16T17:49:23;29.17;;;13.60;;
54167;SDS011;40072;50.958;3.592;2022-12-16T17:52:07;36.50;;;15.25;;
54167;SDS011;40072;50.958;3.592;2022-12-16T17:54:51;25.73;;;14.52;;
54167;SDS011;40072;50.958;3.592;2022-12-16T17:57:35;39.55;;;14.80;;
54167;SDS011;40072;50.958;3.592;2022-12-16T18:00:19;30.67;;;15.07;;
54167;SDS011;40072;50.958;3.592;2022-12-16T18:03:04;45.50;;;15.23;;
54167;SDS011;40072;50.958;3.592;2022-12-16T18:05:48;34.35;;;14.30;;
54167;SDS011;40072;50.958;3.592;2022-12-16T18:08:39;30.15;;;13.60;;
54167;SDS011;40072;50.958;3.592;2022-12-16T18:11:23;31.65;;;14.13;;
54167;SDS011;40072;50.958;3.592;2022-12-16T18:14:21;29.20;;;13.82;;
54167;SDS011;40072;50.958;3.592;2022-12-16T18:17:05;37.40;;;16.73;;
54167;SDS011;40072;50.958;3.592;2022-12-16T18:19:49;30.90;;;13.10;;
54167;SDS011;40072;50.958;3.592;2022-12-16T18:22:33;37.42;;;15.63;;
54167;SDS011;40072;50.958;3.592;2022-12-16T18:25:18;38.38;;;16.23;;
54167;SDS011;40072;50.958;3.592;2022-12-16T18:28:02;38.10;;;14.50;;
54167;SDS011;40072;50.958;3.592;2022-12-16T18:30:46;35.38;;;17.23;;